ADDS METAR Data INFO
IDs: Format: Raw Decoded Include TAF

Data at: 0752 UTC 17 Oct 2017

KHEQ 170730Z AUTO 28005KT 10SM CLR 05/M01 A3018 RMK AO2
KHEQ 170710Z AUTO 29005KT 10SM CLR 05/M01 A3017 RMK AO2
KHEQ 170650Z AUTO 32004KT 10SM CLR 05/M01 A3017 RMK AO2
KHEQ 170630Z AUTO 29007KT 10SM CLR 05/00 A3018 RMK AO2
KHEQ 170610Z AUTO 31004KT 10SM CLR 09/M02 A3017 RMK AO2
KHEQ 170550Z AUTO 31004KT 10SM CLR 11/M01 A3017 RMK AO2
KHEQ 170530Z AUTO 32006KT 10SM CLR 12/M01 A3018 RMK AO2
KHEQ 170510Z AUTO 31006KT 10SM CLR 10/M01 A3018 RMK AO2
KHEQ 170450Z AUTO 32008G16KT 10SM CLR 07/M01 A3018 RMK AO2
KHEQ 170430Z AUTO 29005KT 10SM CLR 08/00 A3018 RMK AO2
KHEQ 170410Z AUTO 29007KT 10SM CLR 07/00 A3018 RMK AO2
KHEQ 170350Z AUTO 29005KT 10SM CLR 08/00 A3018 RMK AO2
KHEQ 170330Z AUTO 31004KT 10SM CLR 12/M01 A3018 RMK AO2
KHEQ 170310Z AUTO 32006KT 10SM CLR 08/00 A3018 RMK AO2
KHEQ 170250Z AUTO 32004KT 10SM CLR 08/00 A3018 RMK AO2
KHEQ 170230Z AUTO 29004KT 10SM CLR 09/00 A3017 RMK AO2
KHEQ 170210Z AUTO 32003KT 10SM CLR 12/M01 A3016 RMK AO2
KHEQ 170150Z AUTO 33005KT 10SM CLR 15/M03 A3015 RMK AO2
KHEQ 170130Z AUTO 34006KT 10SM CLR 16/M03 A3015 RMK AO2
KHEQ 170110Z AUTO 34006KT 10SM CLR 17/M03 A3015 RMK AO2
KHEQ 170050Z AUTO 33006KT 10SM CLR 17/M03 A3014 RMK AO2
KHEQ 170030Z AUTO 32004KT 10SM CLR 18/M03 A3014 RMK AO2
KHEQ 170010Z AUTO 34004KT 10SM CLR 19/M02 A3013 RMK AO2
KHEQ 162350Z AUTO 33005KT 10SM CLR 19/00 A3012 RMK AO2
KHEQ 162330Z AUTO 29003KT 10SM CLR 20/00 A3011 RMK AO2
KHEQ 162310Z AUTO 00000KT 10SM CLR 23/M03 A3012 RMK AO2
KHEQ 162250Z AUTO 27004KT 10SM CLR 23/M02 A3011 RMK AO2
KHEQ 162230Z AUTO 29005KT 10SM CLR 23/M07 A3012 RMK AO2
KHEQ 162210Z AUTO 28008KT 10SM CLR 26/M08 A3012 RMK AO2
KHEQ 162150Z AUTO 28008KT 10SM CLR 27/M07 A3011 RMK AO2
KHEQ 162130Z AUTO 29007G15KT 10SM CLR 27/M10 A3012 RMK AO2
KHEQ 162110Z AUTO 29012G16KT 10SM CLR 27/M10 A3012 RMK AO2
KHEQ 162050Z AUTO 30010G14KT 10SM CLR 27/M08 A3012 RMK AO2
KHEQ 162030Z AUTO 27012KT 10SM CLR 27/M05 A3012 RMK AO2
KHEQ 162010Z AUTO 27009KT 259V319 10SM CLR 27/M04 A3014 RMK AO2
KHEQ 161950Z AUTO 26005KT 10SM CLR 26/M02 A3014 RMK AO2
KHEQ 161930Z AUTO 21006KT 10SM CLR 26/M03 A3016 RMK AO2
KHEQ 161910Z AUTO 21007KT 189V249 10SM CLR 26/M01 A3017 RMK AO2
KHEQ 161850Z AUTO 24006KT 10SM CLR 26/00 A3018 RMK AO2
KHEQ 161830Z AUTO 21008KT 189V259 10SM CLR 25/M01 A3019 RMK AO2
KHEQ 161810Z AUTO 22007KT 10SM CLR 23/00 A3021 RMK AO2
KHEQ 161755Z AUTO 22007KT 10SM CLR 23/00 A3021 RMK AO2
KHEQ 161735Z AUTO 21008KT 189V259 10SM CLR 23/01 A3023 RMK AO2
KHEQ 161715Z AUTO 23008KT 179V259 10SM CLR 21/M01 A3023 RMK AO2
KHEQ 161655Z AUTO 22004KT 10SM CLR 19/00 A3023 RMK AO2
KHEQ 161630Z AUTO 22004KT 10SM CLR 17/01 A3025 RMK AO2
KHEQ 161610Z AUTO 21003KT 10SM CLR 16/01 A3025 RMK AO2
KHEQ 161550Z AUTO 23004KT 10SM CLR 13/01 A3027 RMK AO2
KHEQ 161530Z AUTO 23005KT 10SM CLR 12/01 A3027 RMK AO2
KHEQ 161510Z AUTO 25007KT 10SM CLR 11/01 A3028 RMK AO2
KHEQ 161455Z AUTO 24007KT 10SM CLR 09/00 A3028 RMK AO2
KHEQ 161435Z AUTO 00000KT 10SM CLR 07/01 A3028 RMK AO2
KHEQ 161410Z AUTO 22003KT 10SM CLR 05/00 A3028 RMK AO2
KHEQ 161350Z AUTO 21004KT 10SM CLR 03/00 A3028 RMK AO2
KHEQ 161330Z AUTO 00000KT 10SM CLR 03/00 A3028 RMK AO2
KHEQ 161310Z AUTO 22004KT 10SM CLR 01/M01 A3028 RMK AO2
KHEQ 161250Z AUTO 21004KT 10SM CLR 01/M01 A3028 RMK AO2
KHEQ 161230Z AUTO 21004KT 10SM CLR 01/M01 A3029 RMK AO2
KHEQ 161210Z AUTO 24005KT 10SM CLR 01/M01 A3029 RMK AO2
KHEQ 161150Z AUTO 24003KT 10SM CLR 01/M01 A3029 RMK AO2
KHEQ 161130Z AUTO 24005KT 10SM CLR 01/M01 A3030 RMK AO2
KHEQ 161110Z AUTO 25003KT 10SM CLR 01/M01 A3030 RMK AO2
KHEQ 161055Z AUTO 26004KT 10SM CLR 01/M01 A3030 RMK AO2
KHEQ 161030Z AUTO 27003KT 10SM CLR 01/M01 A3030 RMK AO2
KHEQ 161010Z AUTO 27003KT 10SM CLR 01/M01 A3031 RMK AO2
KHEQ 160950Z AUTO 25006KT 10SM CLR 01/M01 A3030 RMK AO2
KHEQ 160930Z AUTO 26008KT 10SM CLR 02/M01 A3031 RMK AO2
KHEQ 160910Z AUTO 26008KT 10SM CLR 01/M01 A3031 RMK AO2
KHEQ 160850Z AUTO 22003KT 10SM CLR 01/M01 A3033 RMK AO2
KHEQ 160830Z AUTO 00000KT 10SM CLR 01/M01 A3033 RMK AO2
KHEQ 160810Z AUTO 00000KT 10SM CLR 01/M01 A3034 RMK AO2
KHEQ 160750Z AUTO 00000KT 10SM CLR 01/M01 A3034 RMK AO2
KHEQ 160730Z AUTO 18004KT 10SM CLR 01/M01 A3035 RMK AO2
KHEQ 160710Z AUTO 00000KT 10SM CLR 01/M01 A3035 RMK AO2
KHEQ 160650Z AUTO 24003KT 10SM CLR 03/00 A3035 RMK AO2
KHEQ 160630Z AUTO 00000KT 10SM CLR 03/00 A3037 RMK AO2
KHEQ 160610Z AUTO 00000KT 10SM CLR 03/00 A3037 RMK AO2
KHEQ 160550Z AUTO 25005KT 10SM CLR 03/00 A3037 RMK AO2
KHEQ 160530Z AUTO 25005KT 10SM CLR 03/00 A3038 RMK AO2
KHEQ 160510Z AUTO 24005KT 10SM CLR 03/M01 A3038 RMK AO2
KHEQ 160450Z AUTO 24006KT 10SM CLR 05/00 A3038 RMK AO2
KHEQ 160430Z AUTO 24003KT 10SM CLR 04/M01 A3038 RMK AO2
KHEQ 160410Z AUTO 23003KT 10SM CLR 05/00 A3038 RMK AO2
KHEQ 160350Z AUTO 21003KT 10SM CLR 05/00 A3039 RMK AO2
KHEQ 160330Z AUTO 21004KT 10SM CLR 05/00 A3038 RMK AO2
KHEQ 160310Z AUTO 21005KT 10SM CLR 05/00 A3038 RMK AO2
KHEQ 160250Z AUTO 21004KT 10SM CLR 05/M01 A3038 RMK AO2
KHEQ 160230Z AUTO 20006KT 10SM CLR 07/M01 A3038 RMK AO2
KHEQ 160210Z AUTO 19003KT 10SM CLR 07/M01 A3038 RMK AO2
KHEQ 160150Z AUTO 18005KT 10SM CLR 07/M01 A3038 RMK AO2
KHEQ 160130Z AUTO 17004KT 10SM CLR 08/M01 A3038 RMK AO2
KHEQ 160110Z AUTO 00000KT 10SM CLR 08/M02 A3037 RMK AO2
KHEQ 160050Z AUTO 00000KT 10SM CLR 11/M01 A3037 RMK AO2
KHEQ 160030Z AUTO 00000KT 10SM CLR 13/M02 A3037 RMK AO2
KHEQ 160010Z AUTO 19003KT 10SM CLR 15/M02 A3036 RMK AO2
KHEQ 152350Z AUTO 00000KT 10SM CLR 16/M02 A3036 RMK AO2
KHEQ 152330Z AUTO 00000KT 10SM CLR 17/M03 A3037 RMK AO2
KHEQ 152310Z AUTO 31004KT 10SM CLR 17/M04 A3037 RMK AO2
KHEQ 152255Z AUTO 27004KT 10SM CLR 18/M05 A3037 RMK AO2
KHEQ 152230Z AUTO 00000KT 10SM CLR 18/M05 A3037 RMK AO2
KHEQ 152210Z AUTO 00000KT 10SM CLR 18/M05 A3037 RMK AO2
KHEQ 152150Z AUTO 30005KT 10SM CLR 18/M05 A3038 RMK AO2
KHEQ 152130Z AUTO 33004KT 10SM CLR 18/M05 A3038 RMK AO2
KHEQ 152110Z AUTO 29009KT 10SM CLR 18/M05 A3038 RMK AO2
KHEQ 152050Z AUTO 29006KT 10SM CLR 18/M05 A3039 RMK AO2
KHEQ 152030Z AUTO 27006KT 10SM CLR 17/M06 A3039 RMK AO2
KHEQ 152010Z AUTO 25004G09KT 10SM CLR 17/M06 A3040 RMK AO2